createdAt,value
2018-05-21T00:00:23.272Z,3.00
2018-05-21T00:00:55.819Z,3.30
2018-05-21T00:01:28.385Z,3.72
2018-05-21T00:02:00.899Z,3.15
2018-05-21T00:02:33.436Z,3.45
2018-05-21T00:03:05.992Z,3.33
2018-05-21T00:03:38.553Z,3.00
2018-05-21T00:04:11.108Z,3.50
2018-05-21T00:04:43.629Z,3.03
2018-05-21T00:05:16.175Z,3.42
2018-05-21T00:05:48.688Z,3.37
2018-05-21T00:06:21.233Z,3.37
2018-05-21T00:06:53.765Z,3.47
2018-05-21T00:07:26.336Z,3.37
2018-05-21T00:07:58.856Z,3.80
2018-05-21T00:08:31.391Z,3.35
2018-05-21T00:09:03.944Z,3.58
2018-05-21T00:09:36.484Z,3.60
2018-05-21T00:10:09.042Z,3.63
2018-05-21T00:10:41.590Z,4.00
2018-05-21T00:11:14.122Z,3.45
2018-05-21T00:11:46.635Z,3.95
2018-05-21T00:12:19.186Z,3.27
2018-05-21T00:12:51.764Z,3.40
2018-05-21T00:13:24.764Z,3.70
2018-05-21T00:13:57.625Z,3.40
2018-05-21T00:14:30.150Z,3.55
2018-05-21T00:15:02.668Z,3.12
2018-05-21T00:15:35.981Z,3.40
2018-05-21T00:16:08.516Z,3.27
2018-05-21T00:16:41.124Z,3.28
2018-05-21T00:17:13.629Z,2.97
2018-05-21T00:17:46.180Z,3.12
2018-05-21T00:18:18.720Z,3.27
2018-05-21T00:18:51.282Z,3.78
2018-05-21T00:19:23.820Z,3.40
2018-05-21T00:19:56.384Z,2.97
2018-05-21T00:20:28.917Z,3.72
2018-05-21T00:21:01.456Z,3.55
2018-05-21T00:21:33.999Z,3.65
2018-05-21T00:22:06.560Z,3.60
2018-05-21T00:22:39.080Z,3.60
2018-05-21T00:23:11.634Z,3.75
2018-05-21T00:23:44.155Z,3.47
2018-05-21T00:24:16.676Z,4.00
2018-05-21T00:24:49.225Z,3.58
2018-05-21T00:25:21.771Z,3.65
2018-05-21T00:25:54.317Z,3.12
2018-05-21T00:26:26.881Z,3.33
2018-05-21T00:26:59.430Z,3.47
2018-05-21T00:27:32.050Z,3.72
2018-05-21T00:28:04.608Z,3.42
2018-05-21T00:28:37.127Z,3.40
2018-05-21T00:29:09.681Z,3.60
2018-05-21T00:29:42.215Z,3.67
2018-05-21T00:30:14.770Z,3.27
2018-05-21T00:30:47.336Z,3.15
2018-05-21T00:31:19.885Z,3.62
2018-05-21T00:31:52.447Z,3.30
2018-05-21T00:32:25.003Z,3.53
2018-05-21T00:32:57.547Z,3.33
2018-05-21T00:33:30.071Z,3.50
2018-05-21T00:34:02.601Z,3.78
2018-05-21T00:34:35.137Z,3.30
2018-05-21T00:35:07.661Z,3.70
2018-05-21T00:35:40.211Z,3.55
2018-05-21T00:36:12.740Z,3.57
2018-05-21T00:36:45.289Z,3.58
2018-05-21T00:37:17.845Z,3.67
2018-05-21T00:37:50.420Z,3.30
2018-05-21T00:38:22.967Z,4.00
2018-05-21T00:38:55.507Z,3.83
2018-05-21T00:39:28.037Z,5.20
2018-05-21T00:40:00.676Z,4.95
2018-05-21T00:40:33.199Z,4.57
2018-05-21T00:41:05.763Z,5.12
2018-05-21T00:41:38.315Z,4.93
2018-05-21T00:42:10.864Z,5.03
2018-05-21T00:42:43.380Z,4.75
2018-05-21T00:43:15.956Z,4.97
2018-05-21T00:43:48.542Z,5.50
2018-05-21T00:44:21.113Z,5.37
2018-05-21T00:44:53.647Z,5.10
2018-05-21T00:45:26.191Z,4.53
2018-05-21T00:45:58.759Z,4.35
2018-05-21T00:46:31.310Z,4.20
2018-05-21T00:47:03.859Z,3.87
2018-05-21T00:47:36.409Z,3.90
2018-05-21T00:48:09.727Z,4.20
2018-05-21T00:48:42.379Z,3.80
2018-05-21T00:49:14.952Z,3.87
2018-05-21T00:49:47.502Z,4.12
2018-05-21T00:50:20.150Z,4.50
2018-05-21T00:50:52.629Z,4.25
2018-05-21T00:51:25.162Z,4.22
2018-05-21T00:51:57.707Z,4.87
2018-05-21T00:52:30.267Z,4.70
2018-05-21T00:53:02.796Z,4.62
2018-05-21T00:53:35.329Z,4.47
2018-05-21T00:54:07.868Z,5.13
2018-05-21T00:54:52.145Z,4.80
2018-05-21T00:55:36.447Z,5.22
2018-05-21T00:56:09.012Z,4.10
2018-05-21T00:56:41.532Z,4.32
2018-05-21T00:57:14.069Z,4.75
2018-05-21T00:57:46.607Z,4.45
2018-05-21T00:58:19.317Z,5.10
2018-05-21T00:58:51.872Z,5.30
2018-05-21T00:59:24.388Z,4.53
2018-05-21T00:59:56.952Z,4.10
2018-05-21T01:00:30.163Z,3.65
2018-05-21T01:01:02.996Z,4.78
2018-05-21T01:01:35.544Z,3.90
2018-05-21T01:02:08.104Z,4.50
2018-05-21T01:02:40.636Z,3.92
2018-05-21T01:03:13.173Z,3.45
2018-05-21T01:03:45.737Z,3.97
2018-05-21T01:04:18.288Z,4.13
2018-05-21T01:04:50.832Z,4.37
2018-05-21T01:05:23.378Z,4.25
2018-05-21T01:05:55.914Z,4.93
2018-05-21T01:06:28.458Z,4.20
2018-05-21T01:07:01.746Z,3.83
2018-05-21T01:07:34.293Z,4.18
2018-05-21T01:08:06.846Z,4.18
2018-05-21T01:08:39.374Z,4.12
2018-05-21T01:09:11.916Z,4.50
2018-05-21T01:09:44.465Z,4.62
2018-05-21T01:10:17.055Z,4.97
2018-05-21T01:10:49.601Z,4.70
2018-05-21T01:11:22.184Z,3.80
2018-05-21T01:11:54.749Z,3.62
2018-05-21T01:12:27.263Z,3.42
2018-05-21T01:13:00.836Z,4.78
2018-05-21T01:13:34.128Z,4.20
2018-05-21T01:14:06.657Z,4.90
2018-05-21T01:14:39.193Z,4.65
2018-05-21T01:15:11.733Z,4.12
2018-05-21T01:15:44.485Z,4.30
2018-05-21T01:16:17.777Z,3.73
2018-05-21T01:16:50.336Z,3.53
2018-05-21T01:17:23.234Z,4.22
2018-05-21T01:17:55.794Z,4.15
2018-05-21T01:18:28.369Z,4.55
2018-05-21T01:19:00.917Z,4.60
2018-05-21T01:19:33.471Z,3.97
2018-05-21T01:20:06.038Z,4.00
2018-05-21T01:20:38.579Z,3.45
2018-05-21T01:21:11.132Z,4.10
2018-05-21T01:21:43.679Z,5.07
2018-05-21T01:22:16.205Z,5.30
2018-05-21T01:22:48.785Z,4.50
2018-05-21T01:23:21.343Z,4.10
2018-05-21T01:23:53.892Z,3.75
2018-05-21T01:24:26.415Z,3.15
2018-05-21T01:24:58.983Z,3.22
2018-05-21T01:25:32.288Z,4.15
2018-05-21T01:26:04.821Z,4.60
2018-05-21T01:26:37.368Z,4.12
2018-05-21T01:27:10.715Z,4.00
2018-05-21T01:27:43.276Z,5.00
2018-05-21T01:28:15.874Z,3.50
2018-05-21T01:28:48.411Z,3.62
2018-05-21T01:29:20.927Z,3.58
2018-05-21T01:29:53.458Z,3.83
2018-05-21T01:30:26.012Z,5.40
2018-05-21T01:30:58.556Z,4.68
2018-05-21T01:31:31.076Z,4.40
2018-05-21T01:32:03.610Z,4.50
2018-05-21T01:32:36.161Z,4.22
2018-05-21T01:33:08.704Z,3.80
2018-05-21T01:33:41.255Z,3.80
2018-05-21T01:34:13.791Z,3.60
2018-05-21T01:34:47.108Z,4.05
2018-05-21T01:35:19.635Z,3.80
2018-05-21T01:35:52.205Z,3.58
2018-05-21T01:36:24.760Z,3.55
2018-05-21T01:36:57.299Z,3.42
2018-05-21T01:37:30.605Z,3.60
2018-05-21T01:38:03.139Z,3.47
2018-05-21T01:38:35.650Z,3.08
2018-05-21T01:39:08.192Z,3.30
2018-05-21T01:39:40.766Z,3.47
2018-05-21T01:40:13.309Z,3.60
2018-05-21T01:40:45.837Z,3.25
2018-05-21T01:41:18.394Z,3.35
2018-05-21T01:41:50.919Z,3.50
2018-05-21T01:42:24.239Z,3.80
2018-05-21T01:42:56.812Z,3.40
2018-05-21T01:43:29.356Z,3.78
2018-05-21T01:44:01.900Z,3.47
2018-05-21T01:44:34.445Z,3.85
2018-05-21T01:45:07.020Z,3.70
2018-05-21T01:45:39.544Z,4.05
2018-05-21T01:46:12.096Z,3.47
2018-05-21T01:46:44.639Z,4.18
2018-05-21T01:47:17.208Z,3.67
2018-05-21T01:47:49.849Z,3.72
2018-05-21T01:48:22.393Z,4.30
2018-05-21T01:48:55.053Z,4.18
2018-05-21T01:49:28.273Z,3.62
2018-05-21T01:50:00.876Z,3.72
2018-05-21T01:50:33.413Z,3.60
2018-05-21T01:51:05.940Z,3.60
2018-05-21T01:51:38.466Z,3.92
2018-05-21T01:52:11.047Z,3.90
2018-05-21T01:52:43.592Z,4.20
2018-05-21T01:53:16.146Z,3.80
2018-05-21T01:53:48.696Z,4.47
2018-05-21T01:54:21.247Z,5.17
2018-05-21T01:54:53.805Z,4.62
2018-05-21T01:55:26.342Z,3.90
2018-05-21T01:55:58.855Z,4.25
2018-05-21T01:56:31.425Z,4.27
2018-05-21T01:57:03.958Z,4.55
2018-05-21T01:57:36.523Z,3.93
2018-05-21T01:58:09.065Z,3.90
2018-05-21T01:58:42.360Z,4.20
2018-05-21T01:59:14.881Z,5.57
2018-05-21T01:59:47.406Z,4.65
2018-05-21T02:00:19.957Z,5.12
2018-05-21T02:00:52.522Z,5.33
2018-05-21T02:01:25.089Z,4.62
2018-05-21T02:01:57.627Z,4.35
2018-05-21T02:02:30.171Z,3.95
2018-05-21T02:03:03.497Z,4.10
2018-05-21T02:03:36.057Z,4.00
2018-05-21T02:04:08.595Z,4.20
2018-05-21T02:04:41.147Z,3.62
2018-05-21T02:05:13.664Z,3.83
2018-05-21T02:05:46.188Z,4.97
2018-05-21T02:06:18.720Z,4.60
2018-05-21T02:06:51.238Z,4.30
2018-05-21T02:07:23.783Z,4.15
2018-05-21T02:07:56.315Z,4.05
2018-05-21T02:08:28.884Z,3.72
2018-05-21T02:09:01.403Z,3.60
2018-05-21T02:09:33.928Z,4.07
2018-05-21T02:10:06.467Z,4.05
2018-05-21T02:10:39.011Z,3.92
2018-05-21T02:11:11.557Z,3.83
2018-05-21T02:11:44.097Z,4.20
2018-05-21T02:12:16.669Z,4.20
2018-05-21T02:12:49.217Z,3.40
2018-05-21T02:13:21.778Z,3.85
2018-05-21T02:13:54.323Z,4.20
2018-05-21T02:14:27.621Z,3.70
2018-05-21T02:15:00.173Z,3.90
2018-05-21T02:15:32.684Z,3.80
2018-05-21T02:16:05.227Z,3.83
2018-05-21T02:16:37.747Z,3.55
2018-05-21T02:17:11.066Z,3.83
2018-05-21T02:17:43.579Z,4.05
2018-05-21T02:18:16.127Z,3.63
2018-05-21T02:18:48.644Z,4.05
2018-05-21T02:19:21.159Z,4.10
2018-05-21T02:19:53.701Z,4.47
2018-05-21T02:20:26.250Z,4.10
2018-05-21T02:20:58.764Z,3.90
2018-05-21T02:21:31.289Z,3.85
2018-05-21T02:22:03.815Z,4.28
2018-05-21T02:22:36.332Z,4.03
2018-05-21T02:23:08.861Z,3.85
2018-05-21T02:23:41.408Z,4.10
2018-05-21T02:24:13.953Z,3.97
2018-05-21T02:24:47.284Z,4.20
2018-05-21T02:25:19.857Z,4.10
2018-05-21T02:25:52.425Z,4.25
2018-05-21T02:26:24.980Z,4.10
2018-05-21T02:26:57.576Z,4.03
2018-05-21T02:27:30.064Z,4.37
2018-05-21T02:28:02.975Z,4.12
2018-05-21T02:28:35.488Z,3.97
2018-05-21T02:29:08.029Z,4.15
2018-05-21T02:29:40.551Z,4.28
2018-05-21T02:30:13.077Z,4.23
2018-05-21T02:30:46.409Z,4.73
2018-05-21T02:31:18.937Z,5.50
2018-05-21T02:31:51.471Z,4.87
2018-05-21T02:32:23.995Z,4.45
2018-05-21T02:32:56.528Z,4.10
2018-05-21T02:33:29.076Z,4.12
2018-05-21T02:34:03.315Z,4.35
2018-05-21T02:34:35.836Z,3.97
2018-05-21T02:35:08.404Z,3.65
2018-05-21T02:35:40.960Z,3.75
2018-05-21T02:36:13.504Z,4.03
2018-05-21T02:36:46.021Z,4.10
2018-05-21T02:37:18.562Z,3.75
2018-05-21T02:37:51.125Z,4.00
2018-05-21T02:38:23.688Z,4.70
2018-05-21T02:38:56.203Z,4.37
2018-05-21T02:39:28.747Z,3.40
2018-05-21T02:40:01.357Z,3.60
2018-05-21T02:40:34.665Z,3.60
2018-05-21T02:41:07.220Z,3.50
2018-05-21T02:41:39.778Z,3.40
2018-05-21T02:42:12.307Z,3.80
2018-05-21T02:42:44.833Z,3.60
2018-05-21T02:43:17.359Z,3.40
2018-05-21T02:43:50.660Z,4.10
2018-05-21T02:44:23.180Z,3.95
2018-05-21T02:44:55.703Z,3.53
2018-05-21T02:45:28.275Z,3.35
2018-05-21T02:46:00.794Z,4.22
2018-05-21T02:46:34.107Z,3.92
2018-05-21T02:47:06.688Z,3.83
2018-05-21T02:47:39.213Z,3.80
2018-05-21T02:48:11.739Z,3.83
2018-05-21T02:48:44.252Z,3.92
2018-05-21T02:49:16.796Z,3.80
2018-05-21T02:49:50.089Z,3.90
2018-05-21T02:50:22.637Z,3.80
2018-05-21T02:50:55.184Z,3.78
2018-05-21T02:51:28.011Z,3.50
2018-05-21T02:52:00.560Z,3.72
2018-05-21T02:52:33.085Z,3.53
2018-05-21T02:53:05.636Z,3.35
2018-05-21T02:53:38.192Z,3.65
2018-05-21T02:54:10.748Z,3.67
2018-05-21T02:54:43.266Z,3.83
2018-05-21T02:55:15.788Z,3.62
2018-05-21T02:55:48.324Z,3.90
2018-05-21T02:56:20.888Z,4.07
2018-05-21T02:56:53.452Z,4.07
2018-05-21T02:57:26.024Z,4.47
2018-05-21T02:57:58.600Z,4.32
2018-05-21T02:58:31.179Z,4.25
2018-05-21T02:59:03.731Z,3.70
2018-05-21T02:59:36.284Z,3.97
2018-05-21T03:00:08.799Z,3.80
2018-05-21T03:00:41.326Z,3.60
2018-05-21T03:01:13.877Z,3.78
2018-05-21T03:01:46.419Z,3.60
2018-05-21T03:02:18.936Z,3.80
2018-05-21T03:02:51.457Z,3.55
2018-05-21T03:03:24.000Z,4.20
2018-05-21T03:03:56.565Z,3.87
2018-05-21T03:04:29.098Z,4.10
2018-05-21T03:05:02.399Z,4.50
2018-05-21T03:05:34.909Z,3.85
2018-05-21T03:06:07.440Z,3.60
2018-05-21T03:06:39.993Z,3.50
2018-05-21T03:07:12.540Z,3.97
2018-05-21T03:07:45.072Z,3.90
2018-05-21T03:08:17.599Z,4.10
2018-05-21T03:08:50.172Z,4.00
2018-05-21T03:09:22.698Z,3.42
2018-05-21T03:09:55.212Z,3.80
2018-05-21T03:10:27.760Z,3.33
2018-05-21T03:11:00.310Z,3.72
2018-05-21T03:11:32.832Z,3.55
2018-05-21T03:12:05.377Z,3.83
2018-05-21T03:12:38.688Z,3.42
2018-05-21T03:13:11.232Z,3.55
2018-05-21T03:13:43.792Z,3.93
2018-05-21T03:14:16.317Z,3.33
2018-05-21T03:14:48.828Z,3.65
2018-05-21T03:15:21.389Z,3.80
2018-05-21T03:15:53.911Z,4.03
2018-05-21T03:16:26.455Z,3.70
2018-05-21T03:16:59.001Z,3.83
2018-05-21T03:17:31.552Z,4.07
2018-05-21T03:18:04.071Z,4.20
2018-05-21T03:18:36.620Z,3.58
2018-05-21T03:19:09.185Z,3.60
2018-05-21T03:19:41.701Z,3.70
2018-05-21T03:20:14.220Z,3.40
2018-05-21T03:20:46.767Z,3.50
2018-05-21T03:21:19.313Z,3.33
2018-05-21T03:21:51.871Z,3.70
2018-05-21T03:22:24.420Z,3.78
2018-05-21T03:22:56.954Z,3.70
2018-05-21T03:23:29.491Z,3.65
2018-05-21T03:24:02.928Z,3.60
2018-05-21T03:24:35.484Z,3.50
2018-05-21T03:25:08.807Z,3.75
2018-05-21T03:25:41.350Z,3.80
2018-05-21T03:26:13.901Z,3.37
2018-05-21T03:26:46.449Z,3.47
2018-05-21T03:27:18.992Z,3.73
2018-05-21T03:27:51.522Z,3.35
2018-05-21T03:28:24.052Z,3.60
2018-05-21T03:28:56.580Z,3.55
2018-05-21T03:29:29.112Z,3.58
2018-05-21T03:30:02.605Z,3.42
2018-05-21T03:30:35.161Z,3.47
2018-05-21T03:31:07.683Z,3.57
2018-05-21T03:31:40.240Z,3.30
2018-05-21T03:32:12.761Z,3.50
2018-05-21T03:32:45.300Z,3.13
2018-05-21T03:33:17.860Z,3.50
2018-05-21T03:33:50.386Z,3.53
2018-05-21T03:34:23.560Z,3.87
2018-05-21T03:34:56.863Z,3.50
2018-05-21T03:35:29.422Z,4.00
2018-05-21T03:36:03.673Z,3.70
2018-05-21T03:36:36.211Z,3.60
2018-05-21T03:37:08.773Z,3.80
2018-05-21T03:37:41.304Z,3.57
2018-05-21T03:38:14.596Z,3.93
2018-05-21T03:38:47.139Z,3.55
2018-05-21T03:39:19.688Z,3.67
2018-05-21T03:39:52.241Z,3.70
2018-05-21T03:40:24.798Z,4.20
2018-05-21T03:40:57.319Z,3.87
2018-05-21T03:41:30.665Z,4.00
2018-05-21T03:42:03.213Z,3.93
2018-05-21T03:42:35.754Z,3.73
2018-05-21T03:43:08.285Z,3.50
2018-05-21T03:43:40.832Z,3.10
2018-05-21T03:44:13.357Z,3.53
2018-05-21T03:44:45.898Z,3.93
2018-05-21T03:45:18.456Z,3.90
2018-05-21T03:45:50.969Z,3.63
2018-05-21T03:46:23.510Z,3.75
2018-05-21T03:46:56.087Z,3.72
2018-05-21T03:47:28.616Z,3.30
2018-05-21T03:48:01.343Z,3.60
2018-05-21T03:48:33.885Z,3.55
2018-05-21T03:49:06.403Z,3.55
2018-05-21T03:49:38.934Z,3.75
2018-05-21T03:50:12.244Z,3.60
2018-05-21T03:50:44.769Z,3.70
2018-05-21T03:51:17.304Z,3.65
2018-05-21T03:51:49.853Z,3.50
2018-05-21T03:52:22.396Z,3.70
2018-05-21T03:52:54.911Z,3.80
2018-05-21T03:53:27.471Z,3.53
2018-05-21T03:54:00.028Z,3.55
2018-05-21T03:54:33.187Z,3.17
2018-05-21T03:55:05.759Z,3.55
2018-05-21T03:55:38.310Z,3.60
2018-05-21T03:56:10.869Z,3.60
2018-05-21T03:56:43.416Z,3.80
2018-05-21T03:57:15.936Z,3.67
2018-05-21T03:57:48.483Z,3.20
2018-05-21T03:58:32.623Z,3.80
2018-05-21T03:59:17.259Z,4.43
2018-05-21T04:00:01.521Z,3.30
2018-05-21T04:00:45.665Z,3.40
2018-05-21T04:02:36.940Z,3.42
2018-05-21T04:03:25.976Z,4.05
2018-05-21T04:03:58.507Z,4.10
2018-05-21T04:04:31.069Z,3.55
2018-05-21T04:05:03.624Z,3.58
2018-05-21T04:05:36.941Z,3.33
2018-05-21T04:06:09.468Z,3.57
2018-05-21T04:06:42.009Z,3.97
2018-05-21T04:07:14.528Z,3.42
2018-05-21T04:07:47.063Z,3.30
2018-05-21T04:08:19.588Z,4.33
2018-05-21T04:08:52.169Z,3.92
2018-05-21T04:09:24.740Z,4.20
2018-05-21T04:09:57.312Z,3.80
2018-05-21T04:10:29.875Z,3.80
2018-05-21T04:11:02.426Z,3.90
2018-05-21T04:11:35.745Z,3.70
2018-05-21T04:12:08.291Z,3.73
2018-05-21T04:12:40.816Z,3.60
2018-05-21T04:13:13.379Z,4.40
2018-05-21T04:13:45.924Z,3.97
2018-05-21T04:14:18.514Z,3.90
2018-05-21T04:14:51.078Z,4.22
2018-05-21T04:15:23.610Z,3.60
2018-05-21T04:15:56.148Z,3.40
2018-05-21T04:16:28.700Z,3.87
2018-05-21T04:17:01.253Z,3.72
2018-05-21T04:17:33.815Z,3.50
2018-05-21T04:18:06.371Z,3.53
2018-05-21T04:18:39.049Z,3.90
2018-05-21T04:19:11.521Z,4.10
2018-05-21T04:19:44.091Z,3.50
2018-05-21T04:20:16.696Z,3.73
2018-05-21T04:20:49.233Z,3.43
2018-05-21T04:21:21.760Z,3.70
2018-05-21T04:21:54.294Z,3.43
2018-05-21T04:22:26.832Z,3.35
2018-05-21T04:22:59.362Z,3.67
2018-05-21T04:23:31.919Z,3.80
2018-05-21T04:24:04.511Z,3.70
2018-05-21T04:24:37.063Z,3.75
2018-05-21T04:25:09.625Z,3.83
2018-05-21T04:25:42.172Z,4.10
2018-05-21T04:26:14.728Z,3.60
2018-05-21T04:26:47.275Z,4.00
2018-05-21T04:27:20.601Z,3.60
2018-05-21T04:27:53.181Z,3.37
2018-05-21T04:28:25.726Z,3.60
2018-05-21T04:28:58.279Z,3.95
2018-05-21T04:29:30.824Z,3.47
2018-05-21T04:30:03.387Z,3.73
2018-05-21T04:30:35.961Z,3.60
2018-05-21T04:31:08.507Z,3.40
2018-05-21T04:31:41.076Z,3.73
2018-05-21T04:32:13.620Z,3.10
2018-05-21T04:32:46.152Z,3.63
2018-05-21T04:33:18.720Z,3.20
2018-05-21T04:33:51.291Z,3.60
2018-05-21T04:34:23.851Z,3.53
2018-05-21T04:34:56.425Z,3.83
2018-05-21T04:35:28.993Z,3.60
2018-05-21T04:36:01.736Z,3.70
2018-05-21T04:36:34.363Z,4.17
2018-05-21T04:37:06.865Z,3.57
2018-05-21T04:37:39.410Z,3.67
2018-05-21T04:38:11.955Z,3.73
2018-05-21T04:38:44.601Z,3.07
2018-05-21T04:39:17.187Z,3.35
2018-05-21T04:39:49.732Z,3.67
2018-05-21T04:40:22.309Z,4.00
2018-05-21T04:40:54.863Z,3.50
2018-05-21T04:41:27.400Z,3.47
2018-05-21T04:41:59.916Z,3.47
2018-05-21T04:42:32.490Z,3.40
2018-05-21T04:43:05.016Z,3.63
2018-05-21T04:43:37.560Z,4.03
2018-05-21T04:44:10.874Z,3.67
2018-05-21T04:44:43.432Z,3.13
2018-05-21T04:45:15.969Z,3.45
2018-05-21T04:45:48.534Z,3.47
2018-05-21T04:46:21.070Z,3.40
2018-05-21T04:46:53.686Z,3.30
2018-05-21T04:47:26.251Z,3.03
2018-05-21T04:47:58.874Z,3.15
2018-05-21T04:48:31.401Z,3.10
2018-05-21T04:49:03.962Z,3.33
2018-05-21T04:49:36.503Z,3.20
2018-05-21T04:50:09.064Z,3.30
2018-05-21T04:50:41.640Z,3.27
2018-05-21T04:51:14.475Z,3.30
2018-05-21T04:51:47.033Z,3.37
2018-05-21T04:52:19.619Z,3.10
2018-05-21T04:52:52.179Z,3.12
2018-05-21T04:53:24.788Z,3.10
2018-05-21T04:53:57.317Z,3.00
2018-05-21T04:54:29.867Z,3.57
2018-05-21T04:55:02.411Z,3.20
2018-05-21T04:55:34.952Z,3.77
2018-05-21T04:56:07.504Z,3.80
2018-05-21T04:56:40.028Z,3.47
2018-05-21T04:57:13.344Z,3.60
2018-05-21T04:57:45.872Z,3.80
2018-05-21T04:58:18.439Z,3.70
2018-05-21T04:58:51.004Z,3.60
2018-05-21T04:59:23.543Z,3.53
2018-05-21T04:59:56.084Z,3.53
2018-05-21T05:00:28.637Z,3.30
2018-05-21T05:01:01.278Z,3.50
2018-05-21T05:01:33.882Z,3.45
2018-05-21T05:02:06.414Z,3.75
2018-05-21T05:02:38.979Z,3.60
2018-05-21T05:03:11.547Z,3.35
2018-05-21T05:03:44.084Z,4.07
2018-05-21T05:04:16.629Z,3.50
2018-05-21T05:04:49.200Z,3.80
2018-05-21T05:05:21.740Z,3.08
2018-05-21T05:05:54.263Z,3.00
2018-05-21T05:06:26.824Z,3.30
2018-05-21T05:06:59.390Z,3.60
2018-05-21T05:07:31.923Z,3.35
2018-05-21T05:08:05.232Z,3.37
2018-05-21T05:08:37.804Z,3.12
2018-05-21T05:09:10.341Z,3.27
2018-05-21T05:09:42.871Z,3.23
2018-05-21T05:10:15.424Z,3.13
2018-05-21T05:10:48.736Z,3.10
2018-05-21T05:11:21.327Z,3.08
2018-05-21T05:11:53.879Z,3.17
2018-05-21T05:12:26.503Z,3.50
2018-05-21T05:12:59.087Z,3.67
2018-05-21T05:13:32.412Z,3.50
2018-05-21T05:14:04.947Z,3.03
2018-05-21T05:14:37.497Z,3.20
2018-05-21T05:15:10.051Z,3.05
2018-05-21T05:15:43.347Z,3.10
2018-05-21T05:16:15.859Z,3.40
2018-05-21T05:16:48.417Z,3.03
2018-05-21T05:17:20.994Z,3.20
2018-05-21T05:17:53.580Z,3.57
2018-05-21T05:18:26.148Z,3.10
2018-05-21T05:18:58.688Z,3.17
2018-05-21T05:19:31.236Z,3.30
2018-05-21T05:20:03.780Z,3.50
2018-05-21T05:20:36.348Z,3.70
2018-05-21T05:21:08.929Z,3.20
2018-05-21T05:21:41.467Z,3.43
2018-05-21T05:22:14.017Z,2.80
2018-05-21T05:22:46.596Z,3.20
2018-05-21T05:23:19.114Z,3.35
2018-05-21T05:23:51.645Z,3.47
2018-05-21T05:24:24.187Z,3.30
2018-05-21T05:24:56.702Z,2.97
2018-05-21T05:25:29.223Z,3.35
2018-05-21T05:26:02.555Z,3.32
2018-05-21T05:26:35.142Z,3.20
2018-05-21T05:27:07.633Z,3.30
2018-05-21T05:27:40.199Z,3.50
2018-05-21T05:28:12.767Z,3.40
2018-05-21T05:28:45.288Z,3.40
2018-05-21T05:29:17.842Z,3.50
2018-05-21T05:29:50.399Z,3.50
2018-05-21T05:30:22.919Z,3.00
2018-05-21T05:30:55.452Z,3.17
2018-05-21T05:31:27.988Z,3.40
2018-05-21T05:32:01.281Z,3.08
2018-05-21T05:32:33.808Z,3.25
2018-05-21T05:33:06.351Z,3.20
2018-05-21T05:33:38.916Z,3.30
2018-05-21T05:34:11.467Z,3.20
2018-05-21T05:34:44.025Z,3.00
2018-05-21T05:35:16.603Z,3.10
2018-05-21T05:35:49.125Z,3.35
2018-05-21T05:36:21.668Z,3.13
2018-05-21T05:36:54.987Z,3.12
2018-05-21T05:37:27.544Z,3.28
2018-05-21T05:38:00.090Z,3.25
2018-05-21T05:38:32.638Z,3.22
2018-05-21T05:39:06.050Z,2.72
2018-05-21T05:39:38.574Z,3.00
2018-05-21T05:40:11.912Z,3.45
2018-05-21T05:40:44.432Z,3.35
2018-05-21T05:41:16.947Z,3.50
2018-05-21T05:41:49.479Z,3.37
2018-05-21T05:42:22.023Z,3.17
2018-05-21T05:42:54.951Z,2.72
2018-05-21T05:43:27.468Z,2.87
2018-05-21T05:43:59.979Z,3.10
2018-05-21T05:44:32.586Z,2.80
2018-05-21T05:45:05.132Z,3.40
2018-05-21T05:45:37.687Z,2.90
2018-05-21T05:46:10.217Z,3.00
2018-05-21T05:46:42.770Z,3.10
2018-05-21T05:47:15.295Z,3.15
2018-05-21T05:47:47.827Z,3.12
2018-05-21T05:48:20.384Z,3.33
2018-05-21T05:48:52.931Z,3.08
2018-05-21T05:49:25.491Z,3.03
2018-05-21T05:49:58.068Z,3.33
2018-05-21T05:50:30.621Z,2.95
2018-05-21T05:51:03.177Z,3.60
2018-05-21T05:51:35.704Z,3.25
2018-05-21T05:52:09.670Z,2.65
2018-05-21T05:52:42.220Z,3.08
2018-05-21T05:53:14.764Z,3.15
2018-05-21T05:53:47.285Z,2.97
2018-05-21T05:54:19.796Z,3.60
2018-05-21T05:54:52.360Z,2.80
2018-05-21T05:55:24.912Z,2.80
2018-05-21T05:55:57.446Z,3.10
2018-05-21T05:56:30.765Z,3.05
2018-05-21T05:57:03.279Z,2.60
2018-05-21T05:57:35.794Z,3.30
2018-05-21T05:58:08.392Z,3.00
2018-05-21T05:58:40.867Z,2.73
2018-05-21T05:59:14.143Z,2.95
2018-05-21T05:59:47.432Z,3.20
2018-05-21T06:00:19.977Z,2.67
2018-05-21T06:00:52.519Z,3.12
2018-05-21T06:01:25.075Z,2.83
2018-05-21T06:01:57.605Z,3.28
2018-05-21T06:02:30.157Z,3.20
2018-05-21T06:03:02.700Z,3.08
2018-05-21T06:03:35.248Z,2.58
2018-05-21T06:04:07.783Z,3.05
2018-05-21T06:04:40.321Z,3.10
2018-05-21T06:05:12.852Z,3.40
2018-05-21T06:05:45.364Z,3.25
2018-05-21T06:06:17.889Z,3.27
2018-05-21T06:06:50.438Z,3.10
2018-05-21T06:07:22.996Z,3.33
2018-05-21T06:07:55.543Z,2.92
2018-05-21T06:08:28.079Z,3.22
2018-05-21T06:09:00.600Z,3.28
2018-05-21T06:09:33.879Z,2.97
2018-05-21T06:10:06.453Z,3.05
2018-05-21T06:10:38.972Z,3.45
2018-05-21T06:11:11.511Z,3.40
2018-05-21T06:11:44.028Z,3.22
2018-05-21T06:12:16.575Z,3.10
2018-05-21T06:12:49.134Z,2.97
2018-05-21T06:13:21.702Z,2.87
2018-05-21T06:13:54.229Z,2.80
2018-05-21T06:14:26.746Z,3.20
2018-05-21T06:14:59.268Z,2.87
2018-05-21T06:15:31.820Z,3.10
2018-05-21T06:16:04.431Z,3.22
2018-05-21T06:16:36.982Z,3.05
2018-05-21T06:17:09.523Z,3.30
2018-05-21T06:17:42.074Z,3.25
2018-05-21T06:18:14.622Z,3.30
2018-05-21T06:18:47.153Z,3.15
2018-05-21T06:19:19.691Z,3.45
2018-05-21T06:19:52.216Z,3.05
2018-05-21T06:20:24.744Z,2.92
2018-05-21T06:20:57.281Z,3.20
2018-05-21T06:21:29.873Z,3.45
2018-05-21T06:22:02.596Z,3.52
2018-05-21T06:22:35.119Z,3.12
2018-05-21T06:23:07.663Z,3.60
2018-05-21T06:23:40.180Z,3.55
2018-05-21T06:24:12.732Z,3.90
2018-05-21T06:24:45.259Z,3.58
2018-05-21T06:25:18.553Z,3.85
2018-05-21T06:25:51.141Z,3.05
2018-05-21T06:26:23.647Z,3.22
2018-05-21T06:26:56.222Z,2.87
2018-05-21T06:27:28.788Z,3.33
2018-05-21T06:28:01.323Z,3.10
2018-05-21T06:28:33.900Z,3.40
2018-05-21T06:29:06.430Z,2.92
2018-05-21T06:29:38.963Z,3.17
2018-05-21T06:30:11.504Z,3.60
2018-05-21T06:30:44.023Z,3.37
2018-05-21T06:31:16.572Z,3.30
2018-05-21T06:31:49.115Z,2.90
2018-05-21T06:32:21.639Z,3.37
2018-05-21T06:32:54.188Z,3.10
2018-05-21T06:33:26.740Z,3.45
2018-05-21T06:33:59.303Z,2.90
2018-05-21T06:34:31.797Z,3.05
2018-05-21T06:35:04.325Z,3.20
2018-05-21T06:35:36.844Z,3.72
2018-05-21T06:36:09.357Z,3.00
2018-05-21T06:36:41.892Z,3.12
2018-05-21T06:37:14.437Z,3.15
2018-05-21T06:37:46.954Z,3.30
2018-05-21T06:38:19.508Z,3.10
2018-05-21T06:38:52.093Z,3.10
2018-05-21T06:39:24.639Z,3.60
2018-05-21T06:39:57.201Z,3.35
2018-05-21T06:40:29.720Z,3.47
2018-05-21T06:41:03.035Z,3.28
2018-05-21T06:41:35.565Z,3.30
2018-05-21T06:42:08.114Z,3.30
2018-05-21T06:42:40.663Z,2.95
2018-05-21T06:43:13.182Z,3.08
2018-05-21T06:43:45.704Z,2.92
2018-05-21T06:44:19.052Z,3.20
2018-05-21T06:44:51.601Z,2.92
2018-05-21T06:45:24.144Z,3.20
2018-05-21T06:45:56.659Z,2.90
2018-05-21T06:46:29.187Z,3.22
2018-05-21T06:47:01.720Z,3.30
2018-05-21T06:47:34.270Z,3.28
2018-05-21T06:48:06.827Z,3.33
2018-05-21T06:48:39.344Z,3.10
2018-05-21T06:49:11.893Z,3.40
2018-05-21T06:49:44.448Z,3.40
2018-05-21T06:50:16.967Z,3.50
2018-05-21T06:50:49.486Z,3.20
2018-05-21T06:51:22.014Z,3.35
2018-05-21T06:51:55.322Z,3.30
2018-05-21T06:52:27.846Z,3.05
2018-05-21T06:53:00.387Z,3.40
2018-05-21T06:53:32.930Z,3.15
2018-05-21T06:54:05.476Z,3.10
2018-05-21T06:54:38.060Z,3.30
2018-05-21T06:55:10.575Z,3.17
2018-05-21T06:55:43.900Z,2.90
2018-05-21T06:56:16.435Z,3.10
2018-05-21T06:56:48.955Z,2.80
2018-05-21T06:57:21.474Z,3.25
2018-05-21T06:57:54.045Z,3.58
2018-05-21T06:58:26.590Z,3.17
2018-05-21T06:58:59.143Z,3.00
2018-05-21T06:59:31.693Z,3.12
2018-05-21T07:00:05.012Z,3.17
2018-05-21T07:00:37.524Z,3.15
2018-05-21T07:01:10.805Z,3.20
2018-05-21T07:01:43.373Z,3.55
2018-05-21T07:02:15.944Z,3.30
2018-05-21T07:02:48.491Z,2.65
2018-05-21T07:03:21.046Z,3.20
2018-05-21T07:03:53.587Z,3.50
2018-05-21T07:04:26.128Z,3.58
2018-05-21T07:04:58.676Z,3.40
2018-05-21T07:05:31.267Z,3.28
2018-05-21T07:06:03.823Z,3.62
2018-05-21T07:06:36.339Z,3.60
2018-05-21T07:07:08.888Z,3.50
2018-05-21T07:07:41.424Z,3.60
2018-05-21T07:08:13.978Z,3.37
2018-05-21T07:08:46.495Z,3.53
2018-05-21T07:09:19.797Z,3.00
2018-05-21T07:09:52.330Z,3.50
2018-05-21T07:10:24.869Z,3.42
2018-05-21T07:10:57.433Z,3.42
2018-05-21T07:11:29.960Z,3.37
2018-05-21T07:12:03.271Z,3.40
2018-05-21T07:12:35.804Z,3.30
2018-05-21T07:13:08.344Z,3.55
2018-05-21T07:13:40.859Z,3.60
2018-05-21T07:14:13.395Z,3.70
2018-05-21T07:14:45.917Z,3.37
2018-05-21T07:15:19.197Z,3.17
2018-05-21T07:15:51.715Z,3.17
2018-05-21T07:16:24.281Z,3.28
2018-05-21T07:16:56.822Z,3.22